createdAt,value
2023-05-07T00:01:20.352Z,9.90
2023-05-07T00:03:46.668Z,7.90
2023-05-07T00:06:15.482Z,8.60
2023-05-07T00:08:43.690Z,8.10
2023-05-07T00:11:09.951Z,9.80
2023-05-07T00:13:39.224Z,8.20
2023-05-07T00:16:05.822Z,9.40
2023-05-07T00:18:31.984Z,10.70
2023-05-07T00:20:58.203Z,9.20
2023-05-07T00:23:24.241Z,9.30
2023-05-07T00:25:53.365Z,8.80
2023-05-07T00:28:19.445Z,8.80
2023-05-07T00:30:45.826Z,8.50
2023-05-07T00:33:12.054Z,7.70
2023-05-07T00:35:40.574Z,9.40
2023-05-07T00:38:06.683Z,10.20
2023-05-07T00:40:33.047Z,8.80
2023-05-07T00:43:00.381Z,11.70
2023-05-07T00:45:30.322Z,9.60
2023-05-07T00:47:58.645Z,10.50
2023-05-07T00:50:26.207Z,10.00
2023-05-07T00:52:52.447Z,12.00
2023-05-07T00:55:18.696Z,8.50
2023-05-07T00:57:45.266Z,9.80
2023-05-07T01:00:13.047Z,9.70
2023-05-07T01:02:43.752Z,11.80
2023-05-07T01:05:15.315Z,9.50
2023-05-07T01:07:42.674Z,11.20
2023-05-07T01:10:10.247Z,9.80
2023-05-07T01:12:37.789Z,8.70
2023-05-07T01:15:05.472Z,10.60
2023-05-07T01:17:36.153Z,8.10
2023-05-07T01:20:05.498Z,12.20
2023-05-07T01:22:33.673Z,11.30
2023-05-07T01:25:01.944Z,12.00
2023-05-07T01:27:28.511Z,9.90
2023-05-07T01:29:55.958Z,9.50
2023-05-07T01:32:48.135Z,10.80
2023-05-07T01:35:20.855Z,10.40
2023-05-07T01:37:48.132Z,10.90
2023-05-07T01:40:16.919Z,13.40
2023-05-07T01:42:46.472Z,10.90
2023-05-07T01:45:12.545Z,12.30
2023-05-07T01:47:39.822Z,10.50
2023-05-07T01:50:06.870Z,11.30
2023-05-07T01:52:33.199Z,14.20
2023-05-07T01:55:00.608Z,13.50
2023-05-07T01:57:26.900Z,11.80
2023-05-07T01:59:52.990Z,12.10
2023-05-07T02:02:18.980Z,12.30
2023-05-07T02:04:45.097Z,13.00
2023-05-07T02:07:11.314Z,11.10
2023-05-07T02:09:38.495Z,11.00
2023-05-07T02:12:04.912Z,12.90
2023-05-07T02:14:31.042Z,14.50
2023-05-07T02:16:57.226Z,12.60
2023-05-07T02:19:23.523Z,12.60
2023-05-07T02:21:50.165Z,11.80
2023-05-07T02:24:16.233Z,12.30
2023-05-07T02:26:42.256Z,12.00
2023-05-07T02:29:11.421Z,13.40
2023-05-07T02:31:37.547Z,10.70
2023-05-07T02:34:04.408Z,13.00
2023-05-07T02:36:30.632Z,13.20
2023-05-07T02:38:56.887Z,12.60
2023-05-07T02:41:22.910Z,13.00
2023-05-07T02:43:49.245Z,12.00
2023-05-07T02:46:16.180Z,13.40
2023-05-07T02:48:42.383Z,13.00
2023-05-07T02:51:10.768Z,11.40
2023-05-07T02:53:37.126Z,15.90
2023-05-07T02:56:03.673Z,12.90
2023-05-07T02:58:32.493Z,13.40
2023-05-07T03:01:01.483Z,12.30
2023-05-07T03:03:27.800Z,11.30
2023-05-07T03:05:53.939Z,14.20
2023-05-07T03:08:20.029Z,11.90
2023-05-07T03:10:48.960Z,12.30
2023-05-07T03:13:15.294Z,11.70
2023-05-07T03:15:41.510Z,12.60
2023-05-07T03:18:07.809Z,12.60
2023-05-07T03:20:34.085Z,14.90
2023-05-07T03:23:00.420Z,13.50
2023-05-07T03:25:30.550Z,10.60
2023-05-07T03:27:57.372Z,12.70
2023-05-07T03:30:23.540Z,13.20
2023-05-07T03:32:49.688Z,12.70
2023-05-07T03:35:18.034Z,12.40
2023-05-07T03:37:44.170Z,13.80
2023-05-07T03:40:11.108Z,13.80
2023-05-07T03:42:37.864Z,13.00
2023-05-07T03:45:07.794Z,13.00
2023-05-07T03:47:34.054Z,13.90
2023-05-07T03:50:00.246Z,13.70
2023-05-07T03:52:29.552Z,12.20
2023-05-07T03:54:55.684Z,13.60
2023-05-07T03:57:21.685Z,12.90
2023-05-07T03:59:47.880Z,14.30
2023-05-07T04:02:16.759Z,12.00
2023-05-07T04:04:43.079Z,14.20
2023-05-07T04:07:09.194Z,13.50
2023-05-07T04:09:35.264Z,14.20
2023-05-07T04:12:04.480Z,12.50
2023-05-07T04:14:32.537Z,14.90
2023-05-07T04:17:00.063Z,13.10
2023-05-07T04:19:26.139Z,12.10
2023-05-07T04:21:54.488Z,13.10
2023-05-07T04:24:20.632Z,11.70
2023-05-07T04:26:46.749Z,11.80
2023-05-07T04:29:15.134Z,12.10
2023-05-07T04:31:41.396Z,15.00
2023-05-07T04:34:07.914Z,13.00
2023-05-07T04:36:34.285Z,16.40
2023-05-07T04:39:00.734Z,13.60
2023-05-07T04:41:26.983Z,12.50
2023-05-07T04:43:57.203Z,13.10
2023-05-07T04:46:24.690Z,14.20
2023-05-07T04:48:51.866Z,13.50
2023-05-07T04:51:18.299Z,13.60
2023-05-07T04:53:44.528Z,13.80
2023-05-07T04:56:10.651Z,12.90
2023-05-07T04:58:36.892Z,11.90
2023-05-07T05:01:03.272Z,11.80
2023-05-07T05:03:30.780Z,12.80
2023-05-07T05:05:59.769Z,12.40
2023-05-07T05:08:26.198Z,13.50
2023-05-07T05:10:52.369Z,13.60
2023-05-07T05:13:18.642Z,13.50
2023-05-07T05:15:45.997Z,13.60
2023-05-07T05:18:12.185Z,13.20
2023-05-07T05:20:40.889Z,12.20
2023-05-07T05:23:08.344Z,15.50
2023-05-07T05:25:34.525Z,12.50
2023-05-07T05:28:00.716Z,13.50
2023-05-07T05:30:29.002Z,14.00
2023-05-07T05:32:55.408Z,13.20
2023-05-07T05:35:21.531Z,12.60
2023-05-07T05:37:48.551Z,13.60
2023-05-07T05:40:17.830Z,13.50
2023-05-07T05:42:43.970Z,12.20
2023-05-07T05:45:13.107Z,20.20
2023-05-07T05:47:40.080Z,12.50
2023-05-07T05:50:07.507Z,15.90
2023-05-07T05:52:33.806Z,15.70
2023-05-07T05:55:00.081Z,12.30
2023-05-07T05:57:28.487Z,12.70
2023-05-07T05:59:55.369Z,12.50
2023-05-07T06:02:21.449Z,12.20
2023-05-07T06:04:47.871Z,12.40
2023-05-07T06:07:13.884Z,12.40
2023-05-07T06:09:40.318Z,13.00
2023-05-07T06:12:06.606Z,13.20
2023-05-07T06:14:32.693Z,13.30
2023-05-07T06:16:58.853Z,13.10
2023-05-07T06:19:27.030Z,11.80
2023-05-07T06:21:53.071Z,11.90
2023-05-07T06:24:22.021Z,14.20
2023-05-07T06:26:48.253Z,12.70
2023-05-07T06:29:14.835Z,13.40
2023-05-07T06:31:41.345Z,13.90
2023-05-07T06:34:07.969Z,14.20
2023-05-07T06:36:35.639Z,12.00
2023-05-07T06:39:04.198Z,11.00
2023-05-07T06:41:30.354Z,13.20
2023-05-07T06:43:56.428Z,12.10
2023-05-07T06:46:25.167Z,15.80
2023-05-07T06:48:52.639Z,13.60
2023-05-07T06:51:18.997Z,13.90
2023-05-07T06:53:45.134Z,13.40
2023-05-07T06:56:13.513Z,15.00
2023-05-07T06:58:39.575Z,14.00
2023-05-07T07:01:08.659Z,12.90
2023-05-07T07:03:34.998Z,16.30
2023-05-07T07:06:02.532Z,18.00
2023-05-07T07:08:28.621Z,16.10
2023-05-07T07:10:54.932Z,14.50
2023-05-07T07:13:21.264Z,17.10
2023-05-07T07:15:47.662Z,15.90
2023-05-07T07:18:13.793Z,14.80
2023-05-07T07:20:40.227Z,19.80
2023-05-07T07:23:08.577Z,14.80
2023-05-07T07:25:34.740Z,19.50
2023-05-07T07:28:00.931Z,15.70
2023-05-07T07:30:27.108Z,16.00
2023-05-07T07:33:00.933Z,17.40
2023-05-07T07:35:27.098Z,17.00
2023-05-07T07:37:53.121Z,16.00
2023-05-07T07:40:22.335Z,17.50
2023-05-07T07:42:50.850Z,16.10
2023-05-07T07:45:17.181Z,18.90
2023-05-07T07:47:43.355Z,17.00
2023-05-07T07:50:10.551Z,16.70
2023-05-07T07:52:36.904Z,18.80
2023-05-07T07:55:03.714Z,15.90
2023-05-07T07:57:29.788Z,18.30
2023-05-07T07:59:55.836Z,16.80
2023-05-07T08:02:22.082Z,17.80
2023-05-07T08:04:48.294Z,15.00
2023-05-07T08:07:14.428Z,16.40
2023-05-07T08:09:41.269Z,16.10
2023-05-07T08:12:07.791Z,16.50
2023-05-07T08:14:34.886Z,15.70
2023-05-07T08:17:01.561Z,18.60
2023-05-07T08:19:27.753Z,16.00
2023-05-07T08:21:53.819Z,15.60
2023-05-07T08:24:20.104Z,16.40
2023-05-07T08:26:48.484Z,17.10
2023-05-07T08:29:14.670Z,17.40
2023-05-07T08:31:40.827Z,15.90
2023-05-07T08:34:10.217Z,18.70
2023-05-07T08:36:36.692Z,17.50
2023-05-07T08:39:03.213Z,17.00
2023-05-07T08:41:30.014Z,19.20
2023-05-07T08:43:58.478Z,18.10
2023-05-07T08:46:26.034Z,15.60
2023-05-07T08:48:52.470Z,16.40
2023-05-07T08:51:20.441Z,15.90
2023-05-07T08:53:51.436Z,19.90
2023-05-07T08:56:19.017Z,18.50
2023-05-07T08:58:46.206Z,16.40
2023-05-07T09:01:17.494Z,16.10
2023-05-07T09:03:48.057Z,16.60
2023-05-07T09:06:16.078Z,15.70
2023-05-07T09:08:49.546Z,16.70
2023-05-07T09:11:16.165Z,16.70
2023-05-07T09:13:45.754Z,18.10
2023-05-07T09:16:13.092Z,16.20
2023-05-07T09:18:45.630Z,15.40
2023-05-07T09:21:15.653Z,15.70
2023-05-07T09:23:42.511Z,16.80
2023-05-07T09:26:12.341Z,17.50
2023-05-07T09:28:41.232Z,14.80
2023-05-07T09:31:08.442Z,17.10
2023-05-07T09:33:35.441Z,17.10
2023-05-07T09:36:05.754Z,15.50
2023-05-07T09:38:36.391Z,16.30
2023-05-07T09:41:07.433Z,16.50
2023-05-07T09:43:38.399Z,14.30
2023-05-07T09:46:12.106Z,16.60
2023-05-07T09:48:42.248Z,16.10
2023-05-07T09:51:35.052Z,14.10
2023-05-07T09:54:04.419Z,12.70
2023-05-07T09:56:33.138Z,14.20
2023-05-07T09:59:03.717Z,16.70
2023-05-07T10:01:31.979Z,16.10
2023-05-07T10:03:58.254Z,13.60
2023-05-07T10:06:26.154Z,14.40
2023-05-07T10:08:52.899Z,16.10
2023-05-07T10:11:21.795Z,14.20
2023-05-07T10:13:48.601Z,13.20
2023-05-07T10:16:14.982Z,17.90
2023-05-07T10:18:41.833Z,13.80
2023-05-07T10:21:12.544Z,13.10
2023-05-07T10:23:39.225Z,12.70
2023-05-07T10:26:07.495Z,12.70
2023-05-07T10:28:40.507Z,12.80
2023-05-07T10:31:24.404Z,13.80
2023-05-07T10:33:51.770Z,14.20
2023-05-07T10:36:18.719Z,13.90
2023-05-07T10:38:48.030Z,12.80
2023-05-07T10:41:15.636Z,11.80
2023-05-07T10:43:43.791Z,14.60
2023-05-07T10:46:20.451Z,14.10
2023-05-07T10:49:06.552Z,13.60
2023-05-07T10:51:33.648Z,13.80
2023-05-07T10:54:12.114Z,12.80
2023-05-07T10:56:39.464Z,12.00
2023-05-07T10:59:42.305Z,13.40
2023-05-07T11:02:10.500Z,12.90
2023-05-07T11:04:38.609Z,14.20
2023-05-07T11:07:08.665Z,12.10
2023-05-07T11:09:53.187Z,11.60
2023-05-07T11:12:43.761Z,12.20
2023-05-07T11:15:11.456Z,12.20
2023-05-07T11:17:57.948Z,12.20
2023-05-07T11:20:46.381Z,13.60
2023-05-07T11:23:40.837Z,11.60
2023-05-07T11:28:41.001Z,11.30
2023-05-07T11:31:07.864Z,12.20
2023-05-07T11:33:37.732Z,11.40
2023-05-07T11:36:05.167Z,13.00
2023-05-07T11:38:35.699Z,12.80
2023-05-07T11:41:03.091Z,13.50
2023-05-07T11:43:32.591Z,10.80
2023-05-07T11:46:12.565Z,11.90
2023-05-07T11:48:39.353Z,12.10
2023-05-07T11:51:06.838Z,11.10
2023-05-07T11:53:38.282Z,11.30
2023-05-07T11:56:14.363Z,12.10
2023-05-07T11:58:41.462Z,10.70
2023-05-07T12:01:09.586Z,11.90
2023-05-07T12:03:44.414Z,10.20
2023-05-07T12:06:12.385Z,10.50
2023-05-07T12:08:42.207Z,11.80
2023-05-07T12:11:11.885Z,10.90
2023-05-07T12:13:38.353Z,12.90
2023-05-07T12:16:05.173Z,11.30
2023-05-07T12:18:31.531Z,10.50
2023-05-07T12:20:58.279Z,10.20
2023-05-07T12:23:24.960Z,12.20
2023-05-07T12:25:51.265Z,11.40
2023-05-07T12:28:19.535Z,10.20
2023-05-07T12:30:48.138Z,12.20
2023-05-07T12:33:28.839Z,9.80
2023-05-07T12:35:56.748Z,10.40
2023-05-07T12:38:22.988Z,9.30
2023-05-07T12:40:53.824Z,12.10
2023-05-07T12:43:28.390Z,11.30
2023-05-07T12:45:56.204Z,12.00
2023-05-07T12:48:23.080Z,11.10
2023-05-07T12:50:56.174Z,11.80
2023-05-07T12:53:25.079Z,10.00
2023-05-07T12:55:53.173Z,13.00
2023-05-07T12:58:25.421Z,10.50
2023-05-07T13:00:52.267Z,11.30
2023-05-07T13:03:27.358Z,10.80
2023-05-07T13:05:58.825Z,10.60
2023-05-07T13:08:40.599Z,9.50
2023-05-07T13:11:08.310Z,11.80
2023-05-07T13:13:35.989Z,12.20
2023-05-07T13:16:02.975Z,10.90
2023-05-07T13:18:33.219Z,11.40
2023-05-07T13:21:00.715Z,10.90
2023-05-07T13:23:27.633Z,9.80
2023-05-07T13:25:57.119Z,10.70
2023-05-07T13:28:24.301Z,11.40
2023-05-07T13:30:52.263Z,10.50
2023-05-07T13:33:18.588Z,10.50
2023-05-07T13:35:45.300Z,9.70
2023-05-07T13:38:11.410Z,11.30
2023-05-07T13:40:37.678Z,10.60
2023-05-07T13:43:06.341Z,10.90
2023-05-07T13:45:32.526Z,11.40
2023-05-07T13:47:58.839Z,12.00
2023-05-07T13:50:27.249Z,10.00
2023-05-07T13:52:53.440Z,10.90
2023-05-07T13:55:21.187Z,11.50
2023-05-07T13:57:47.736Z,12.90
2023-05-07T14:00:15.000Z,10.70
2023-05-07T14:02:41.422Z,11.20
2023-05-07T14:05:09.323Z,10.50
2023-05-07T14:07:36.258Z,10.90
2023-05-07T14:10:03.061Z,10.90
2023-05-07T14:12:30.084Z,12.80
2023-05-07T14:14:56.817Z,11.30
2023-05-07T14:17:28.190Z,10.40
2023-05-07T14:19:54.998Z,10.50
2023-05-07T14:22:22.923Z,9.30
2023-05-07T14:25:03.172Z,9.10
2023-05-07T14:27:35.186Z,9.50
2023-05-07T14:30:01.590Z,9.40
2023-05-07T14:32:27.806Z,9.90
2023-05-07T14:34:53.991Z,9.30
2023-05-07T14:37:20.423Z,8.90
2023-05-07T14:39:49.707Z,7.80
2023-05-07T14:42:16.747Z,8.00
2023-05-07T14:44:43.370Z,39.80
2023-05-07T14:47:09.566Z,63.30
2023-05-07T14:49:35.994Z,8.90
2023-05-07T14:52:02.453Z,5.80
2023-05-07T14:54:28.751Z,6.00
2023-05-07T14:56:56.234Z,5.50
2023-05-07T14:59:22.791Z,7.20
2023-05-07T15:01:52.103Z,6.20
2023-05-07T15:04:18.478Z,5.50
2023-05-07T15:06:44.754Z,5.80
2023-05-07T15:09:10.788Z,6.80
2023-05-07T15:11:36.961Z,6.40
2023-05-07T15:14:05.708Z,4.20
2023-05-07T15:16:33.199Z,3.50
2023-05-07T15:18:59.258Z,5.20
2023-05-07T15:21:26.631Z,5.70
2023-05-07T15:23:52.795Z,5.90
2023-05-07T15:26:18.935Z,4.40
2023-05-07T15:28:45.738Z,4.30
2023-05-07T15:31:12.270Z,4.00
2023-05-07T15:33:38.415Z,4.50
2023-05-07T15:36:05.400Z,2.90
2023-05-07T15:38:34.300Z,3.80
2023-05-07T15:41:00.434Z,6.00
2023-05-07T15:43:26.586Z,3.00
2023-05-07T15:45:53.705Z,1.60
2023-05-07T15:48:20.167Z,2.00
2023-05-07T15:50:46.726Z,3.80
2023-05-07T15:53:14.427Z,4.00
2023-05-07T15:55:43.365Z,3.90
2023-05-07T15:58:12.568Z,4.50
2023-05-07T16:00:40.709Z,4.80
2023-05-07T16:03:09.721Z,4.60
2023-05-07T16:05:39.196Z,4.10
2023-05-07T16:08:05.448Z,5.20
2023-05-07T16:10:31.467Z,5.40
2023-05-07T16:12:57.917Z,6.30
2023-05-07T16:15:24.079Z,7.80
2023-05-07T16:17:57.087Z,7.10
2023-05-07T16:20:29.396Z,10.10
2023-05-07T16:22:56.604Z,9.00
2023-05-07T16:25:22.634Z,7.90
2023-05-07T16:27:48.722Z,8.50
2023-05-07T16:30:15.262Z,8.40
2023-05-07T16:32:41.575Z,7.20
2023-05-07T16:35:08.338Z,6.20
2023-05-07T16:37:40.425Z,8.70
2023-05-07T16:40:08.397Z,6.30
2023-05-07T16:42:37.116Z,6.70
2023-05-07T16:45:04.059Z,9.40
2023-05-07T16:47:30.954Z,8.90
2023-05-07T16:49:57.728Z,7.80
2023-05-07T16:52:23.894Z,6.20
2023-05-07T16:54:50.073Z,8.90
2023-05-07T16:57:16.147Z,6.70
2023-05-07T16:59:42.412Z,7.30
2023-05-07T17:02:11.763Z,8.50
2023-05-07T17:04:38.034Z,6.40
2023-05-07T17:07:04.207Z,7.60
2023-05-07T17:09:30.254Z,10.90
2023-05-07T17:11:56.437Z,7.00
2023-05-07T17:14:22.542Z,9.60
2023-05-07T17:16:48.697Z,8.30
2023-05-07T17:19:14.830Z,6.60
2023-05-07T17:21:40.909Z,8.40
2023-05-07T17:24:07.189Z,7.50
2023-05-07T17:26:38.644Z,8.40
2023-05-07T17:29:04.881Z,6.10
2023-05-07T17:31:30.914Z,5.30
2023-05-07T17:33:58.438Z,5.80
2023-05-07T17:36:24.526Z,4.40
2023-05-07T17:38:51.061Z,6.10
2023-05-07T17:41:21.957Z,7.10
2023-05-07T17:43:48.128Z,6.10
2023-05-07T17:46:14.211Z,6.20
2023-05-07T17:48:40.418Z,6.90
2023-05-07T17:51:09.784Z,6.40
2023-05-07T17:53:36.015Z,5.60
2023-05-07T17:56:02.046Z,7.70
2023-05-07T17:58:28.171Z,6.60
2023-05-07T18:00:57.350Z,10.60
2023-05-07T18:03:27.350Z,5.30
2023-05-07T18:05:53.527Z,8.70
2023-05-07T18:08:22.014Z,5.90
2023-05-07T18:10:48.142Z,5.80
2023-05-07T18:13:14.316Z,4.60
2023-05-07T18:15:40.764Z,6.30
2023-05-07T18:18:06.992Z,8.10
2023-05-07T18:20:33.024Z,9.30
2023-05-07T18:22:59.113Z,6.60
2023-05-07T18:25:25.302Z,6.90
2023-05-07T18:27:51.416Z,8.40
2023-05-07T18:30:21.694Z,6.90
2023-05-07T18:32:48.479Z,6.20
2023-05-07T18:35:16.323Z,7.10
2023-05-07T18:37:42.468Z,7.30
2023-05-07T18:40:09.062Z,8.30
2023-05-07T18:42:37.136Z,7.80
2023-05-07T18:45:03.992Z,6.20
2023-05-07T18:47:30.420Z,7.50
2023-05-07T18:49:56.886Z,8.10
2023-05-07T18:52:24.758Z,7.90
2023-05-07T18:54:50.894Z,8.50
2023-05-07T18:57:17.124Z,8.00
2023-05-07T18:59:43.299Z,7.50
2023-05-07T19:02:13.369Z,8.00
2023-05-07T19:04:42.211Z,7.70
2023-05-07T19:07:08.622Z,6.50
2023-05-07T19:09:35.047Z,7.00
2023-05-07T19:12:01.703Z,6.20
2023-05-07T19:14:27.769Z,7.10
2023-05-07T19:16:53.823Z,8.50
2023-05-07T19:19:19.987Z,9.50
2023-05-07T19:21:46.090Z,7.60
2023-05-07T19:24:12.346Z,7.30
2023-05-07T19:26:39.200Z,8.10
2023-05-07T19:31:35.739Z,8.10
2023-05-07T19:34:02.173Z,7.90
2023-05-07T19:36:28.588Z,9.20
2023-05-07T19:38:54.871Z,7.80
2023-05-07T19:41:22.025Z,8.10
2023-05-07T19:43:50.982Z,7.10
2023-05-07T19:46:18.114Z,8.10
2023-05-07T19:48:45.249Z,7.30
2023-05-07T19:51:11.671Z,8.70
2023-05-07T19:53:40.633Z,9.70
2023-05-07T19:56:09.612Z,9.40
2023-05-07T19:58:37.035Z,6.80
2023-05-07T20:01:08.543Z,8.10
2023-05-07T20:03:37.587Z,7.50
2023-05-07T20:06:04.449Z,7.40
2023-05-07T20:08:30.863Z,7.60
2023-05-07T20:10:59.617Z,6.60
2023-05-07T20:13:26.825Z,8.10
2023-05-07T20:15:59.504Z,8.40
2023-05-07T20:18:27.857Z,9.70
2023-05-07T20:20:54.625Z,7.00
2023-05-07T20:23:20.904Z,7.60
2023-05-07T20:25:47.658Z,7.70
2023-05-07T20:28:16.348Z,8.80
2023-05-07T20:30:42.396Z,9.40
2023-05-07T20:33:08.601Z,8.40
2023-05-07T20:35:37.939Z,9.40
2023-05-07T20:38:04.099Z,10.90
2023-05-07T20:40:33.287Z,8.90
2023-05-07T20:43:00.649Z,11.40
2023-05-07T20:45:27.088Z,10.40
2023-05-07T20:47:53.188Z,9.80
2023-05-07T20:50:22.573Z,11.20
2023-05-07T20:52:48.753Z,9.90
2023-05-07T20:55:15.293Z,8.80
2023-05-07T20:57:41.398Z,10.00
2023-05-07T21:00:08.760Z,10.90
2023-05-07T21:02:35.854Z,13.50
2023-05-07T21:05:03.192Z,10.00
2023-05-07T21:07:29.946Z,12.60
2023-05-07T21:09:56.004Z,9.90
2023-05-07T21:12:22.769Z,10.30
2023-05-07T21:14:49.040Z,13.70
2023-05-07T21:17:15.168Z,10.00
2023-05-07T21:19:42.640Z,11.90
2023-05-07T21:22:08.650Z,10.30
2023-05-07T21:24:34.779Z,10.90
2023-05-07T21:27:03.274Z,12.10
2023-05-07T21:29:30.127Z,12.00
2023-05-07T21:31:56.426Z,12.30
2023-05-07T21:34:22.637Z,13.60
2023-05-07T21:36:51.279Z,11.50
2023-05-07T21:39:21.921Z,10.30
2023-05-07T21:41:48.014Z,12.20
2023-05-07T21:44:14.187Z,11.00
2023-05-07T21:46:40.418Z,12.20
2023-05-07T21:49:08.794Z,11.20
2023-05-07T21:51:35.291Z,13.00
2023-05-07T21:54:03.654Z,10.90
2023-05-07T21:56:32.507Z,12.20
2023-05-07T21:58:58.533Z,14.20
2023-05-07T22:01:24.794Z,13.20
2023-05-07T22:03:51.329Z,13.80
2023-05-07T22:06:21.106Z,13.40
2023-05-07T22:08:50.134Z,13.60
2023-05-07T22:11:16.498Z,13.40
2023-05-07T22:13:43.059Z,11.80
2023-05-07T22:16:11.618Z,11.40
2023-05-07T22:18:38.025Z,14.50
2023-05-07T22:21:04.577Z,12.10
2023-05-07T22:23:30.698Z,11.30
2023-05-07T22:25:57.746Z,13.30
2023-05-07T22:28:23.882Z,11.80
2023-05-07T22:30:50.826Z,10.70
2023-05-07T22:33:17.182Z,10.90
2023-05-07T22:35:45.663Z,14.60
2023-05-07T22:38:11.903Z,15.30
2023-05-07T22:40:38.120Z,13.00
2023-05-07T22:43:04.202Z,12.10
2023-05-07T22:45:30.301Z,13.70
2023-05-07T22:47:56.472Z,11.90
2023-05-07T22:50:22.535Z,12.50
2023-05-07T22:52:48.671Z,14.60
2023-05-07T22:55:14.758Z,15.00
2023-05-07T22:57:40.859Z,14.30
2023-05-07T23:00:07.683Z,14.60
2023-05-07T23:02:33.950Z,13.80
2023-05-07T23:05:01.170Z,14.40
2023-05-07T23:07:30.487Z,13.40
2023-05-07T23:09:56.650Z,13.40
2023-05-07T23:12:22.732Z,12.80
2023-05-07T23:14:49.175Z,14.50
2023-05-07T23:17:15.329Z,12.50
2023-05-07T23:19:41.586Z,13.50
2023-05-07T23:22:11.708Z,12.20
2023-05-07T23:24:41.178Z,13.80
2023-05-07T23:27:07.817Z,14.70
2023-05-07T23:29:34.866Z,13.10
2023-05-07T23:32:01.267Z,14.80
2023-05-07T23:34:27.361Z,14.90
2023-05-07T23:36:53.887Z,13.90
2023-05-07T23:39:20.051Z,13.70
2023-05-07T23:41:46.247Z,13.10
2023-05-07T23:44:12.819Z,12.90
2023-05-07T23:46:39.002Z,12.90
2023-05-07T23:49:05.191Z,13.90
2023-05-07T23:51:31.365Z,14.80
2023-05-07T23:54:00.133Z,13.30
2023-05-07T23:56:26.324Z,13.50
2023-05-07T23:58:52.533Z,13.30
